Time;durP1;ratioP1;P1;durP2;ratioP2;P2;SDS_P1;SDS_P2;PMS_P1;PMS_P2;Temp;Humidity;BMP_temperature;BMP_pressure;BME280_temperature;BME280_humidity;BME280_pressure;Samples;Min_cycle;Max_cycle;Signal;HPM_P1;HPM_P2
2022/03/13 00:02:18;;;;;;;96.80;48.45;;;-1.00;74.30;;;;;;5020687;28;20190;-87
2022/03/13 00:04:49;;;;;;;93.03;44.17;;;-1.00;74.00;;;;;;5020742;28;20207;-87
2022/03/13 00:07:19;;;;;;;82.70;44.50;;;-1.10;74.10;;;;;;5023891;28;20199;-87
2022/03/13 00:09:49;;;;;;;89.03;46.53;;;-1.10;75.30;;;;;;5031118;28;20234;-87
2022/03/13 00:12:19;;;;;;;92.75;46.50;;;-1.10;75.60;;;;;;5022576;28;21058;-87
2022/03/13 00:14:46;;;;;;;74.22;44.63;;;-1.20;75.00;;;;;;5019207;28;20187;-94
2022/03/13 00:17:14;;;;;;;90.05;44.15;;;-1.20;75.30;;;;;;5020598;28;20245;-94
2022/03/13 00:19:39;;;;;;;77.15;41.95;;;-1.20;74.90;;;;;;5019671;28;20183;-88
2022/03/13 00:22:05;;;;;;;79.53;42.27;;;-1.30;75.00;;;;;;5021513;28;20687;-94
2022/03/13 00:24:32;;;;;;;64.63;37.03;;;-1.30;75.00;;;;;;5023294;28;20187;-86
2022/03/13 00:27:00;;;;;;;73.50;36.55;;;-1.30;74.80;;;;;;5019231;28;20291;-94
2022/03/13 00:29:27;;;;;;;65.07;33.92;;;-1.40;74.80;;;;;;5020431;28;20179;-87
2022/03/13 00:31:52;;;;;;;55.88;33.53;;;-1.40;75.60;;;;;;5018794;28;20175;-87
2022/03/13 00:34:19;;;;;;;66.70;36.50;;;-1.50;75.90;;;;;;5021234;28;20218;-94
2022/03/13 00:36:45;;;;;;;64.82;33.42;;;-1.50;75.00;;;;;;5019956;28;20426;-88
2022/03/13 00:39:11;;;;;;;58.37;32.27;;;-1.50;75.60;;;;;;5021074;28;20274;-93
2022/03/13 00:41:38;;;;;;;63.65;35.88;;;-1.50;76.10;;;;;;5018828;28;20233;-95
2022/03/13 00:44:07;;;;;;;61.10;35.17;;;-1.50;76.30;;;;;;5019873;28;20640;-87
2022/03/13 00:46:33;;;;;;;58.08;33.28;;;-1.60;75.90;;;;;;5027636;28;20223;-91
2022/03/13 00:48:59;;;;;;;60.65;33.78;;;-1.60;76.10;;;;;;5031855;28;20207;-93
2022/03/13 00:51:24;;;;;;;59.53;35.37;;;-1.60;75.90;;;;;;5018605;28;20179;-87
2022/03/13 00:53:50;;;;;;;56.77;32.87;;;-1.60;76.10;;;;;;5019578;28;20458;-87
2022/03/13 00:56:17;;;;;;;57.07;32.30;;;-1.70;75.60;;;;;;5018713;28;20391;-90
2022/03/13 00:58:43;;;;;;;59.33;33.42;;;-1.70;76.60;;;;;;5020929;28;20207;-94
2022/03/13 01:01:11;;;;;;;59.47;33.55;;;-1.70;76.40;;;;;;5020621;28;20179;-87
2022/03/13 01:03:36;;;;;;;59.47;32.35;;;-1.70;76.10;;;;;;5018003;28;20211;-94
2022/03/13 01:06:07;;;;;;;47.00;29.10;;;-1.70;76.40;;;;;;5019472;28;20172;-87
2022/03/13 01:08:33;;;;;;;69.60;31.25;;;-1.80;76.80;;;;;;5023918;28;20246;-94
2022/03/13 01:11:00;;;;;;;47.83;30.33;;;-1.80;77.30;;;;;;5019446;28;20179;-87
2022/03/13 01:13:27;;;;;;;58.05;33.53;;;-1.80;77.00;;;;;;5026058;28;20759;-94
2022/03/13 01:16:11;;;;;;;52.80;30.92;;;-1.90;77.50;;;;;;5029095;28;20171;-91
2022/03/13 01:18:41;;;;;;;53.00;33.30;;;-1.90;77.50;;;;;;5017857;28;20265;-86
2022/03/13 01:21:07;;;;;;;56.65;31.13;;;-2.00;77.10;;;;;;5018979;28;20186;-95
2022/03/13 01:23:33;;;;;;;60.30;30.83;;;-2.00;78.10;;;;;;5027502;28;20254;-87
2022/03/13 01:26:37;;;;;;;40.90;28.63;;;-2.00;78.00;;;;;;5031790;28;20403;-87
2022/03/13 01:29:05;;;;;;;54.40;30.70;;;-2.10;78.10;;;;;;5017533;28;20187;-93
2022/03/13 01:31:34;;;;;;;47.65;28.58;;;-2.10;78.00;;;;;;5018892;28;20178;-87
2022/03/13 01:34:01;;;;;;;50.65;31.42;;;-2.10;78.10;;;;;;5018679;28;20358;-95
2022/03/13 01:36:27;;;;;;;44.05;25.60;;;-2.10;78.70;;;;;;5019357;28;20541;-94
2022/03/13 01:38:56;;;;;;;43.38;25.05;;;-2.20;78.40;;;;;;5005058;28;20208;-86
2022/03/13 01:41:24;;;;;;;45.60;25.30;;;-2.20;78.50;;;;;;4999664;28;20183;-87
2022/03/13 01:43:50;;;;;;;43.13;27.15;;;-2.20;78.50;;;;;;4998089;28;20546;-87
2022/03/13 01:46:16;;;;;;;45.03;27.08;;;-2.30;78.00;;;;;;4999483;28;20184;-86
2022/03/13 01:48:58;;;;;;;44.95;26.50;;;-2.30;78.10;;;;;;4998454;28;20258;-94
2022/03/13 01:51:25;;;;;;;37.65;24.73;;;-2.30;78.00;;;;;;5014574;28;20184;-86
2022/03/13 01:53:56;;;;;;;36.53;22.38;;;-2.30;78.30;;;;;;4999641;28;20224;-94
2022/03/13 01:56:22;;;;;;;35.40;22.88;;;-2.30;78.80;;;;;;4998147;28;20179;-94
2022/03/13 01:58:52;;;;;;;49.25;23.40;;;-2.30;79.00;;;;;;4998553;28;20226;-93
2022/03/13 02:01:19;;;;;;;40.38;24.98;;;-2.30;79.00;;;;;;5000085;28;20637;-94
2022/03/13 02:03:45;;;;;;;39.47;24.42;;;-2.30;78.30;;;;;;5001378;28;20208;-94
2022/03/13 02:06:11;;;;;;;41.55;23.98;;;-2.30;78.60;;;;;;4998052;28;20688;-93
2022/03/13 02:08:37;;;;;;;46.50;23.93;;;-2.30;78.90;;;;;;4998661;28;20236;-87
2022/03/13 02:11:03;;;;;;;45.35;26.60;;;-2.30;79.50;;;;;;5000177;28;20481;-86
2022/03/13 02:13:31;;;;;;;41.20;26.80;;;-2.40;79.00;;;;;;5004106;28;20223;-88
2022/03/13 02:15:57;;;;;;;48.17;27.33;;;-2.40;78.50;;;;;;5001524;28;20251;-93
2022/03/13 02:18:23;;;;;;;49.88;27.13;;;-2.40;77.80;;;;;;4999816;28;20235;-87
2022/03/13 02:20:49;;;;;;;53.30;26.83;;;-2.40;78.40;;;;;;5001092;28;20713;-88
2022/03/13 02:23:26;;;;;;;49.00;27.47;;;-2.40;78.20;;;;;;5019457;28;20239;-95
2022/03/13 02:25:57;;;;;;;53.53;27.80;;;-2.40;77.80;;;;;;5000806;28;20660;-95
2022/03/13 02:28:31;;;;;;;48.67;25.27;;;-2.40;78.40;;;;;;5003433;28;20586;-94
2022/03/13 02:31:00;;;;;;;56.17;27.05;;;-2.40;78.60;;;;;;5008429;28;20265;-86
2022/03/13 02:33:25;;;;;;;58.85;31.73;;;-2.50;78.30;;;;;;5018446;28;20235;-86
2022/03/13 02:35:55;;;;;;;51.80;30.30;;;-2.50;78.80;;;;;;5002861;28;20203;-93
2022/03/13 02:38:22;;;;;;;61.17;32.40;;;-2.50;79.10;;;;;;4998976;28;20211;-94
2022/03/13 02:40:48;;;;;;;51.08;29.38;;;-2.60;78.40;;;;;;4998348;28;20176;-87
2022/03/13 02:43:16;;;;;;;46.15;26.10;;;-2.60;79.10;;;;;;4997098;28;20735;-87
2022/03/13 02:45:42;;;;;;;44.25;27.15;;;-2.70;79.70;;;;;;4998681;28;20179;-94
2022/03/13 02:48:09;;;;;;;46.05;29.42;;;-2.70;79.60;;;;;;5000838;28;20195;-95
2022/03/13 02:50:36;;;;;;;50.58;26.55;;;-2.70;79.60;;;;;;4999263;28;20199;-94
2022/03/13 02:53:03;;;;;;;47.78;28.98;;;-2.80;79.50;;;;;;4997660;28;20214;-87
2022/03/13 02:55:29;;;;;;;43.40;28.52;;;-2.80;79.40;;;;;;4999109;28;20587;-92
2022/03/13 02:57:55;;;;;;;55.55;30.33;;;-2.80;79.50;;;;;;4999422;28;20199;-86
2022/03/13 03:00:21;;;;;;;52.42;29.23;;;-2.80;79.50;;;;;;4997372;28;20204;-93
2022/03/13 03:02:48;;;;;;;57.20;30.38;;;-2.80;79.70;;;;;;5002491;28;20222;-93
2022/03/13 03:05:14;;;;;;;52.30;30.38;;;-2.90;80.10;;;;;;4998266;28;20307;-86
2022/03/13 03:07:41;;;;;;;59.95;32.78;;;-2.90;79.90;;;;;;4997123;28;20318;-94
2022/03/13 03:10:12;;;;;;;67.57;36.90;;;-2.90;80.20;;;;;;4997739;28;20284;-93
2022/03/13 03:12:38;;;;;;;68.25;34.03;;;-2.90;80.10;;;;;;4997240;28;20251;-94
2022/03/13 03:15:05;;;;;;;51.25;30.73;;;-2.90;79.90;;;;;;4998127;28;20184;-87
2022/03/13 03:17:30;;;;;;;50.10;32.10;;;-2.80;80.10;;;;;;5001812;28;20199;-95
2022/03/13 03:19:56;;;;;;;58.70;35.10;;;-2.90;80.40;;;;;;4997585;28;20276;-90
2022/03/13 03:22:22;;;;;;;56.67;30.93;;;-2.90;80.50;;;;;;4997464;28;20199;-95
2022/03/13 03:24:48;;;;;;;59.70;32.33;;;-2.90;80.70;;;;;;4998123;28;20204;-94
2022/03/13 03:27:16;;;;;;;53.17;29.55;;;-2.90;80.60;;;;;;4999582;28;20234;-91
2022/03/13 03:29:42;;;;;;;65.70;33.63;;;-2.90;81.00;;;;;;4999912;28;20187;-87
2022/03/13 03:32:08;;;;;;;64.17;36.00;;;-3.00;81.50;;;;;;4997951;28;20200;-95
2022/03/13 03:34:34;;;;;;;73.28;37.45;;;-3.00;81.10;;;;;;4999252;28;20279;-87
2022/03/13 03:37:02;;;;;;;69.47;36.30;;;-3.10;81.10;;;;;;4998592;28;20227;-87
2022/03/13 03:39:30;;;;;;;60.50;32.05;;;-3.00;81.00;;;;;;4999361;28;20436;-88
2022/03/13 03:41:56;;;;;;;63.60;33.92;;;-3.00;81.60;;;;;;4997981;28;20203;-91
2022/03/13 03:44:23;;;;;;;57.90;33.65;;;-3.00;81.30;;;;;;5002013;28;20274;-87
2022/03/13 03:46:50;;;;;;;62.65;34.65;;;-3.00;81.20;;;;;;4998735;28;20226;-86
2022/03/13 03:49:17;;;;;;;69.07;36.08;;;-3.10;81.80;;;;;;5002164;28;20175;-94
2022/03/13 03:51:43;;;;;;;59.15;33.72;;;-3.10;82.00;;;;;;5011708;28;20705;-87
2022/03/13 03:54:09;;;;;;;58.15;33.55;;;-3.10;81.60;;;;;;5007047;28;20210;-95
2022/03/13 03:56:35;;;;;;;60.40;32.35;;;-3.10;82.00;;;;;;5010379;28;20179;-92
2022/03/13 03:59:02;;;;;;;62.95;33.65;;;-3.10;82.20;;;;;;5012518;28;20239;-88
2022/03/13 04:01:33;;;;;;;60.28;33.20;;;-3.10;83.00;;;;;;5004951;28;20174;-86
2022/03/13 04:03:59;;;;;;;60.55;32.58;;;-3.10;83.10;;;;;;5001568;28;20564;-87
2022/03/13 04:06:24;;;;;;;65.03;32.10;;;-3.00;82.30;;;;;;4997590;28;20172;-86
2022/03/13 04:08:50;;;;;;;52.63;29.03;;;-3.00;82.10;;;;;;4998775;28;20743;-94
2022/03/13 04:11:16;;;;;;;58.20;30.47;;;-3.10;81.80;;;;;;5016790;28;20175;-91
2022/03/13 04:13:42;;;;;;;56.13;30.10;;;-3.00;82.70;;;;;;5004606;28;20485;-87
2022/03/13 04:16:08;;;;;;;69.33;37.73;;;-3.00;82.70;;;;;;5014062;28;20405;-93
2022/03/13 04:18:36;;;;;;;60.15;33.65;;;-3.00;82.40;;;;;;4996853;28;20295;-87
2022/03/13 04:21:03;;;;;;;64.57;36.22;;;-2.90;83.00;;;;;;5012174;28;20180;-95
2022/03/13 04:23:30;;;;;;;57.47;31.15;;;-2.80;82.80;;;;;;4998840;28;20669;-87
2022/03/13 04:25:56;;;;;;;64.03;36.33;;;-2.70;83.50;;;;;;4999441;28;20180;-94
2022/03/13 04:28:22;;;;;;;67.30;35.83;;;-2.70;82.80;;;;;;4997541;28;20207;-87
2022/03/13 04:30:52;;;;;;;76.15;38.13;;;-2.80;82.50;;;;;;5012745;28;20179;-93
2022/03/13 04:33:19;;;;;;;76.10;40.45;;;-2.70;82.60;;;;;;4998318;28;20233;-94
2022/03/13 04:35:44;;;;;;;103.70;52.33;;;-2.70;82.70;;;;;;5000017;28;20671;-87
2022/03/13 04:38:11;;;;;;;115.67;66.67;;;-2.70;82.00;;;;;;4998960;28;20299;-94
2022/03/13 04:40:36;;;;;;;132.77;80.43;;;-2.70;81.50;;;;;;4998770;28;20239;-95
2022/03/13 04:43:03;;;;;;;157.70;94.13;;;-2.70;81.70;;;;;;4999765;28;20196;-94
2022/03/13 04:45:29;;;;;;;169.77;108.93;;;-2.60;81.60;;;;;;4999363;28;20164;-88
2022/03/13 04:47:55;;;;;;;178.93;104.03;;;-2.60;81.10;;;;;;5002156;28;20195;-95
2022/03/13 04:50:21;;;;;;;160.75;87.72;;;-2.50;80.00;;;;;;5002086;28;20197;-87
2022/03/13 04:52:47;;;;;;;113.97;65.13;;;-2.50;79.10;;;;;;5002668;28;20220;-94
2022/03/13 04:55:13;;;;;;;110.03;64.13;;;-2.50;78.20;;;;;;5002781;28;20418;-87
2022/03/13 04:57:38;;;;;;;147.15;83.28;;;-2.50;78.80;;;;;;4999930;28;20830;-88
2022/03/13 05:00:05;;;;;;;154.47;84.77;;;-2.40;79.50;;;;;;5000682;28;20550;-88
2022/03/13 05:02:31;;;;;;;130.00;79.55;;;-2.40;79.90;;;;;;5000029;28;20445;-89
2022/03/13 05:04:59;;;;;;;112.10;65.87;;;-2.40;79.80;;;;;;5003966;28;20642;-96
2022/03/13 05:07:25;;;;;;;133.77;70.55;;;-2.40;79.30;;;;;;5001369;28;20323;-87
2022/03/13 05:09:51;;;;;;;104.53;55.97;;;-2.30;79.90;;;;;;5004034;28;20649;-94
2022/03/13 05:12:17;;;;;;;105.17;58.40;;;-2.30;80.00;;;;;;5003174;28;20192;-95
2022/03/13 05:14:43;;;;;;;105.35;59.28;;;-2.20;80.00;;;;;;5005077;28;20989;-96
2022/03/13 05:17:09;;;;;;;145.38;71.72;;;-2.20;79.90;;;;;;5001976;28;20199;-96
2022/03/13 05:19:35;;;;;;;130.33;66.30;;;-2.10;79.80;;;;;;5002193;28;20323;-88
2022/03/13 05:22:01;;;;;;;148.17;72.93;;;-2.10;80.00;;;;;;4998697;28;20673;-95
2022/03/13 05:24:26;;;;;;;133.18;68.63;;;-2.00;80.50;;;;;;5001564;28;20259;-96
2022/03/13 05:26:52;;;;;;;157.23;76.97;;;-2.00;80.50;;;;;;5000503;28;20259;-88
2022/03/13 05:29:18;;;;;;;149.93;76.43;;;-1.90;80.60;;;;;;5003252;28;20429;-88
2022/03/13 05:31:43;;;;;;;145.17;77.07;;;-1.90;80.70;;;;;;4999793;28;20172;-88
2022/03/13 05:34:10;;;;;;;140.67;76.87;;;-1.80;80.50;;;;;;5003347;28;20223;-95
2022/03/13 05:36:37;;;;;;;136.15;74.45;;;-1.80;80.80;;;;;;5003418;28;20184;-96
2022/03/13 05:39:03;;;;;;;127.10;65.95;;;-1.70;81.10;;;;;;5004847;28;20191;-89
2022/03/13 05:41:30;;;;;;;115.03;61.70;;;-1.70;79.90;;;;;;5014562;28;20184;-88
2022/03/13 05:43:56;;;;;;;99.15;56.28;;;-1.70;79.50;;;;;;5003765;28;20230;-91
2022/03/13 05:46:22;;;;;;;104.07;54.17;;;-1.60;80.10;;;;;;5005432;28;20629;-88
2022/03/13 05:48:48;;;;;;;103.73;56.07;;;-1.60;80.30;;;;;;5022933;28;20805;-96
2022/03/13 05:51:13;;;;;;;107.83;54.07;;;-1.50;80.10;;;;;;5012896;28;20180;-93
2022/03/13 05:53:39;;;;;;;110.63;61.10;;;-1.50;79.50;;;;;;5008051;28;20235;-88
2022/03/13 05:56:05;;;;;;;107.33;53.50;;;-1.50;79.80;;;;;;5003774;28;20176;-87
2022/03/13 05:58:30;;;;;;;85.27;49.50;;;-1.40;79.60;;;;;;5007804;28;20200;-88
2022/03/13 06:01:05;;;;;;;84.07;53.30;;;-1.40;79.30;;;;;;5016755;28;20180;-95
2022/03/13 06:03:32;;;;;;;56.83;34.65;;;-1.40;79.60;;;;;;5004041;28;20271;-88
2022/03/13 06:06:00;;;;;;;121.32;52.90;;;-1.30;78.40;;;;;;4999897;28;20236;-88
2022/03/13 06:08:26;;;;;;;84.85;44.63;;;-1.30;78.00;;;;;;5003053;28;20224;-96
2022/03/13 06:10:53;;;;;;;71.83;39.87;;;-1.30;78.70;;;;;;5001267;28;20172;-93
2022/03/13 06:13:19;;;;;;;71.80;41.03;;;-1.10;78.90;;;;;;5001641;28;20319;-96
2022/03/13 06:15:45;;;;;;;65.40;40.85;;;-1.00;79.00;;;;;;5002927;28;20180;-95
2022/03/13 06:18:12;;;;;;;64.30;40.27;;;-0.90;79.30;;;;;;5017392;28;20219;-95
2022/03/13 06:20:37;;;;;;;56.55;35.50;;;-0.80;79.60;;;;;;4998349;28;20172;-95
2022/03/13 06:23:03;;;;;;;56.73;38.10;;;-0.70;79.20;;;;;;4996978;28;20566;-96
2022/03/13 06:25:29;;;;;;;52.90;32.80;;;-0.50;79.20;;;;;;4998244;28;20203;-87
2022/03/13 06:27:56;;;;;;;55.80;33.88;;;-0.40;79.00;;;;;;5014061;28;20502;-88
2022/03/13 06:30:22;;;;;;;54.08;31.38;;;-0.30;78.90;;;;;;4999691;28;20215;-87
2022/03/13 06:32:50;;;;;;;48.17;29.25;;;-0.20;79.00;;;;;;5003584;28;20236;-88
2022/03/13 06:35:18;;;;;;;51.70;29.73;;;0.00;79.20;;;;;;5018575;28;20557;-87
2022/03/13 06:37:45;;;;;;;46.10;26.75;;;0.10;78.30;;;;;;4999919;28;20203;-87
2022/03/13 06:40:13;;;;;;;42.15;26.30;;;0.30;78.00;;;;;;4998486;28;20184;-93
2022/03/13 06:42:39;;;;;;;47.90;29.60;;;0.40;77.80;;;;;;4998948;28;20196;-96
2022/03/13 06:45:09;;;;;;;52.50;30.52;;;0.60;78.10;;;;;;5000279;28;20188;-88
2022/03/13 06:47:35;;;;;;;47.95;26.92;;;0.70;78.20;;;;;;5000952;28;20198;-95
2022/03/13 06:50:00;;;;;;;46.43;29.30;;;0.80;77.70;;;;;;5000376;28;20218;-96
2022/03/13 06:52:26;;;;;;;51.43;29.07;;;0.90;77.60;;;;;;4998994;28;20202;-88
2022/03/13 06:54:52;;;;;;;44.67;28.10;;;1.10;77.70;;;;;;5001698;28;20184;-89
2022/03/13 06:57:18;;;;;;;41.10;27.47;;;1.20;77.70;;;;;;4998435;28;20245;-95
2022/03/13 06:59:44;;;;;;;37.08;25.25;;;1.30;76.80;;;;;;5000137;28;20329;-96
2022/03/13 07:02:11;;;;;;;42.07;25.80;;;1.50;75.60;;;;;;4998050;28;20242;-96
2022/03/13 07:04:37;;;;;;;38.97;25.55;;;1.60;75.60;;;;;;4998458;28;20396;-94
2022/03/13 07:07:03;;;;;;;45.17;27.40;;;1.70;74.00;;;;;;4998244;28;20196;-95
2022/03/13 07:09:29;;;;;;;36.85;24.70;;;1.90;73.90;;;;;;4997607;28;20693;-89
2022/03/13 07:11:54;;;;;;;38.07;24.00;;;2.00;73.50;;;;;;4997683;28;20175;-96
2022/03/13 07:14:21;;;;;;;43.60;26.17;;;2.20;74.00;;;;;;4997143;28;20759;-88
2022/03/13 07:16:47;;;;;;;35.17;22.15;;;2.30;74.20;;;;;;4998551;28;20672;-96
2022/03/13 07:19:13;;;;;;;35.45;22.52;;;2.50;73.60;;;;;;4996237;28;20275;-88
2022/03/13 07:21:39;;;;;;;33.27;21.00;;;2.70;73.60;;;;;;4997696;28;20219;-89
2022/03/13 07:24:05;;;;;;;35.47;21.30;;;2.80;72.20;;;;;;4998099;28;20649;-88
2022/03/13 07:26:31;;;;;;;27.05;20.50;;;3.00;71.90;;;;;;5001116;28;20492;-94
2022/03/13 07:28:57;;;;;;;30.40;20.70;;;3.20;72.00;;;;;;5009326;28;20212;-95
2022/03/13 07:31:22;;;;;;;26.93;19.80;;;3.40;71.40;;;;;;5012975;28;20219;-88
2022/03/13 07:33:48;;;;;;;26.33;19.20;;;3.50;71.80;;;;;;5008439;28;20220;-90
2022/03/13 07:36:14;;;;;;;33.30;20.60;;;3.70;71.70;;;;;;5007534;28;20188;-89
2022/03/13 07:38:40;;;;;;;26.70;19.70;;;3.80;71.70;;;;;;4994754;28;20204;-89
2022/03/13 07:41:06;;;;;;;32.00;20.80;;;4.00;71.20;;;;;;4994596;28;20291;-92
2022/03/13 07:43:33;;;;;;;28.93;20.93;;;4.20;71.00;;;;;;4994572;28;20440;-94
2022/03/13 07:45:59;;;;;;;28.38;20.75;;;4.40;71.80;;;;;;4995435;28;20491;-87
2022/03/13 07:48:24;;;;;;;28.53;21.20;;;4.60;71.00;;;;;;4995688;28;20226;-94
2022/03/13 07:50:50;;;;;;;36.70;20.70;;;4.80;70.00;;;;;;4994985;28;20267;-85
2022/03/13 07:53:16;;;;;;;45.80;27.43;;;5.00;70.00;;;;;;4994020;28;20485;-87
2022/03/13 07:55:42;;;;;;;28.33;21.17;;;5.10;69.30;;;;;;4995268;28;20184;-93
2022/03/13 07:58:08;;;;;;;28.47;18.80;;;5.30;69.20;;;;;;4994813;28;20665;-87
2022/03/13 08:00:34;;;;;;;34.50;20.90;;;5.50;68.80;;;;;;4996872;28;20406;-94
2022/03/13 08:02:59;;;;;;;32.90;19.80;;;5.70;68.30;;;;;;4994627;28;20399;-87
2022/03/13 08:05:25;;;;;;;26.10;20.10;;;5.90;67.90;;;;;;4995639;28;20184;-93
2022/03/13 08:07:56;;;;;;;24.75;18.88;;;6.00;68.20;;;;;;4994529;28;20259;-86
2022/03/13 08:10:23;;;;;;;27.90;17.85;;;6.20;67.40;;;;;;4995067;28;20283;-87
2022/03/13 08:12:50;;;;;;;30.02;19.40;;;6.40;66.40;;;;;;4995816;28;20254;-87
2022/03/13 08:15:16;;;;;;;27.98;19.42;;;6.60;65.80;;;;;;4994737;28;20223;-94
2022/03/13 08:17:42;;;;;;;25.25;19.45;;;6.90;66.00;;;;;;4995117;28;20200;-87
2022/03/13 08:20:08;;;;;;;59.30;33.70;;;7.20;65.00;;;;;;4994298;28;20176;-87
2022/03/13 08:22:34;;;;;;;49.60;31.90;;;7.70;64.00;;;;;;4997757;28;20454;-88
2022/03/13 08:25:00;;;;;;;28.17;21.00;;;8.30;62.70;;;;;;4998939;28;20191;-88
2022/03/13 08:27:25;;;;;;;25.20;19.43;;;9.00;61.70;;;;;;4999598;28;20204;-96
2022/03/13 08:29:51;;;;;;;27.23;18.47;;;9.80;60.40;;;;;;4999134;28;20538;-95
2022/03/13 08:32:17;;;;;;;25.30;18.70;;;10.80;59.00;;;;;;4994653;28;20335;-87
2022/03/13 08:34:45;;;;;;;24.43;17.80;;;11.80;58.20;;;;;;4994001;28;20442;-94
2022/03/13 08:37:12;;;;;;;22.65;18.02;;;12.80;56.70;;;;;;4980783;28;20434;-94
2022/03/13 08:39:38;;;;;;;23.90;18.75;;;13.80;55.10;;;;;;5013073;28;20211;-88
2022/03/13 08:42:05;;;;;;;24.27;18.23;;;14.60;53.40;;;;;;4998671;28;20566;-87
2022/03/13 08:44:31;;;;;;;24.80;19.55;;;15.40;52.70;;;;;;5012407;28;20433;-88
2022/03/13 08:46:58;;;;;;;22.07;15.83;;;16.10;51.40;;;;;;5009785;28;20200;-87
2022/03/13 08:49:24;;;;;;;16.80;15.00;;;16.50;49.10;;;;;;5000989;28;20433;-87
2022/03/13 08:51:50;;;;;;;18.10;14.20;;;16.90;48.40;;;;;;5011869;28;20501;-88
2022/03/13 08:54:16;;;;;;;20.90;17.43;;;16.80;47.80;;;;;;4996625;28;20656;-87
2022/03/13 08:56:42;;;;;;;20.60;18.27;;;16.90;47.60;;;;;;4997974;28;20911;-94
2022/03/13 08:59:08;;;;;;;21.53;14.70;;;17.40;48.90;;;;;;4997791;28;20481;-87
2022/03/13 09:01:34;;;;;;;16.03;14.23;;;17.60;46.40;;;;;;4998367;28;20500;-87
2022/03/13 09:04:00;;;;;;;16.10;13.43;;;18.00;46.20;;;;;;4998161;28;20464;-94
2022/03/13 09:06:26;;;;;;;18.00;15.40;;;18.40;46.10;;;;;;4997164;28;20428;-89
2022/03/13 09:08:52;;;;;;;16.77;14.60;;;18.80;45.80;;;;;;4996448;28;20556;-88
2022/03/13 09:11:18;;;;;;;18.80;15.20;;;19.00;45.00;;;;;;5012908;28;20230;-88
2022/03/13 09:13:44;;;;;;;15.67;13.83;;;19.30;44.40;;;;;;4998098;28;20685;-87
2022/03/13 09:16:10;;;;;;;18.47;15.53;;;19.30;43.50;;;;;;4997983;28;20397;-87
2022/03/13 09:18:35;;;;;;;16.43;14.07;;;19.20;43.30;;;;;;4998139;28;20449;-95
2022/03/13 09:21:01;;;;;;;15.47;13.67;;;19.40;43.00;;;;;;5003925;28;20168;-93
2022/03/13 09:23:28;;;;;;;22.97;13.03;;;19.40;43.00;;;;;;5006418;28;20294;-94
2022/03/13 09:25:55;;;;;;;15.37;11.67;;;19.40;43.20;;;;;;5018762;28;20428;-94
2022/03/13 09:28:22;;;;;;;16.43;13.23;;;19.00;42.20;;;;;;4997450;28;20453;-90
2022/03/13 09:30:48;;;;;;;16.17;14.23;;;18.60;42.50;;;;;;4997120;28;20451;-87
2022/03/13 09:33:14;;;;;;;17.27;13.90;;;18.30;43.50;;;;;;4999846;28;20477;-88
2022/03/13 09:35:40;;;;;;;16.17;14.40;;;18.20;44.10;;;;;;5001827;28;20440;-94
2022/03/13 09:38:07;;;;;;;14.47;12.87;;;18.40;44.50;;;;;;5000204;28;20512;-95
2022/03/13 09:40:33;;;;;;;28.53;25.30;;;18.40;43.40;;;;;;4998381;28;20977;-95
2022/03/13 09:43:00;;;;;;;14.93;10.57;;;18.50;43.00;;;;;;5018815;28;20433;-88
2022/03/13 09:45:26;;;;;;;16.57;13.90;;;18.70;42.10;;;;;;4997337;28;20418;-87
2022/03/13 09:47:53;;;;;;;15.00;12.03;;;18.80;42.00;;;;;;4999835;28;20483;-87
2022/03/13 09:50:20;;;;;;;16.33;14.40;;;19.10;42.00;;;;;;5003631;28;20469;-88
2022/03/13 09:52:46;;;;;;;16.50;14.50;;;19.10;42.00;;;;;;5008547;28;20488;-95
2022/03/13 09:55:14;;;;;;;15.67;14.03;;;18.60;42.00;;;;;;5003644;28;20421;-87
2022/03/13 09:57:41;;;;;;;17.07;12.60;;;18.10;42.60;;;;;;4996653;28;20437;-87
2022/03/13 10:00:13;;;;;;;11.50;10.30;;;17.70;42.30;;;;;;4996260;28;20426;-95
2022/03/13 10:02:40;;;;;;;37.73;33.50;;;17.70;42.30;;;;;;4998997;28;20484;-94
2022/03/13 10:05:06;;;;;;;23.40;18.97;;;17.70;43.10;;;;;;4997545;28;20429;-87
2022/03/13 10:07:51;;;;;;;13.37;11.00;;;17.90;42.60;;;;;;5012507;28;20520;-88
2022/03/13 10:10:17;;;;;;;12.33;10.80;;;18.00;42.70;;;;;;4997362;28;20408;-87
2022/03/13 10:12:43;;;;;;;14.97;11.60;;;17.90;43.20;;;;;;4997218;28;20469;-88
2022/03/13 10:15:11;;;;;;;11.23;10.03;;;17.80;42.40;;;;;;5016944;28;20601;-93
2022/03/13 10:17:38;;;;;;;12.87;11.20;;;17.50;42.00;;;;;;5018926;28;20507;-87
2022/03/13 10:20:35;;;;;;;13.20;11.60;;;16.90;42.60;;;;;;5015377;28;20559;-94
2022/03/13 10:23:00;;;;;;;13.70;11.80;;;16.60;43.00;;;;;;4979931;28;20489;-92
2022/03/13 10:25:34;;;;;;;12.80;11.43;;;16.20;43.70;;;;;;5009216;28;20437;-88
2022/03/13 10:28:25;;;;;;;12.90;11.60;;;16.00;43.50;;;;;;5016560;28;20201;-88
2022/03/13 10:30:59;;;;;;;15.83;11.17;;;15.70;44.20;;;;;;5017623;28;20400;-94
2022/03/13 10:33:48;;;;;;;13.77;11.63;;;15.40;45.00;;;;;;5006002;28;20481;-96
2022/03/13 10:36:21;;;;;;;13.63;10.33;;;14.80;45.00;;;;;;5029474;28;20437;-94
2022/03/13 10:38:48;;;;;;;13.40;12.00;;;14.40;44.80;;;;;;4997820;28;20519;-95
2022/03/13 10:41:14;;;;;;;14.40;11.53;;;14.10;45.60;;;;;;4996230;28;20553;-94
2022/03/13 10:43:40;;;;;;;13.00;11.50;;;13.60;45.10;;;;;;4994661;28;20517;-88
2022/03/13 10:46:06;;;;;;;15.30;11.30;;;13.30;46.30;;;;;;4995920;28;20418;-87
2022/03/13 10:48:36;;;;;;;12.40;11.17;;;13.10;46.40;;;;;;4995631;28;20716;-94
2022/03/13 10:51:04;;;;;;;13.05;10.77;;;13.10;46.40;;;;;;5011725;28;20965;-88
2022/03/13 10:53:31;;;;;;;17.77;12.50;;;13.00;46.20;;;;;;5002879;28;20224;-88
2022/03/13 10:56:07;;;;;;;15.87;11.77;;;12.80;46.30;;;;;;5008529;28;20421;-87
2022/03/13 10:58:35;;;;;;;16.00;11.95;;;12.80;46.80;;;;;;5015187;28;20452;-88
2022/03/13 11:01:05;;;;;;;16.13;13.33;;;12.80;47.50;;;;;;5021625;28;20183;-87
2022/03/13 11:03:36;;;;;;;17.77;13.82;;;12.80;46.80;;;;;;4995957;28;20444;-94
2022/03/13 11:06:03;;;;;;;14.77;12.10;;;12.70;46.60;;;;;;4994490;28;20176;-87
2022/03/13 11:08:29;;;;;;;16.60;12.48;;;12.50;47.10;;;;;;4998542;28;20586;-94
2022/03/13 11:10:55;;;;;;;14.57;12.07;;;12.50;47.00;;;;;;5019034;28;20184;-93
2022/03/13 11:13:25;;;;;;;15.02;11.80;;;12.40;47.10;;;;;;5001783;28;20914;-95
2022/03/13 11:15:55;;;;;;;14.73;12.40;;;12.40;46.80;;;;;;4996630;28;20175;-94
2022/03/13 11:18:24;;;;;;;15.20;11.80;;;12.40;47.10;;;;;;4995309;28;20266;-91
2022/03/13 11:20:50;;;;;;;15.50;11.75;;;12.40;47.50;;;;;;4996150;28;20255;-95
2022/03/13 11:23:17;;;;;;;17.00;12.80;;;12.40;47.60;;;;;;4997481;28;20239;-91
2022/03/13 11:25:43;;;;;;;15.43;12.10;;;12.40;47.30;;;;;;5013180;28;20180;-87
2022/03/13 11:28:09;;;;;;;17.42;12.98;;;12.40;47.00;;;;;;5011146;28;20286;-94
2022/03/13 11:30:36;;;;;;;16.30;11.90;;;12.40;47.20;;;;;;4994734;28;20231;-93
2022/03/13 11:33:02;;;;;;;15.98;13.02;;;12.40;46.90;;;;;;4994493;28;20469;-95
2022/03/13 11:35:32;;;;;;;13.60;11.25;;;12.50;47.90;;;;;;4996750;28;20187;-93
2022/03/13 11:38:00;;;;;;;14.05;12.07;;;12.50;46.70;;;;;;4995217;28;20203;-94
2022/03/13 11:40:36;;;;;;;15.02;11.82;;;12.30;46.40;;;;;;4996019;28;20700;-87
2022/03/13 11:43:12;;;;;;;15.10;11.48;;;12.10;46.60;;;;;;4998654;28;20202;-94
2022/03/13 11:45:41;;;;;;;16.15;11.48;;;12.00;47.00;;;;;;4995803;28;20187;-95
2022/03/13 11:48:22;;;;;;;13.82;11.15;;;11.90;47.50;;;;;;4996187;28;20211;-93
2022/03/13 11:51:01;;;;;;;13.85;11.38;;;11.90;46.80;;;;;;4996083;28;20656;-88
2022/03/13 11:53:44;;;;;;;14.80;11.68;;;11.90;46.90;;;;;;4993907;28;20231;-87
2022/03/13 11:56:13;;;;;;;16.63;11.00;;;11.90;47.00;;;;;;4994920;28;20529;-94
2022/03/13 11:58:47;;;;;;;14.13;11.40;;;12.00;47.50;;;;;;4993740;28;20215;-95
2022/03/13 12:01:21;;;;;;;14.38;11.05;;;12.10;46.70;;;;;;4994375;28;20206;-95
2022/03/13 12:04:04;;;;;;;24.65;20.05;;;12.10;47.20;;;;;;4994463;28;20234;-94
2022/03/13 12:06:43;;;;;;;15.50;11.20;;;12.10;47.10;;;;;;4994915;28;20683;-95
2022/03/13 12:09:09;;;;;;;13.95;12.00;;;12.10;47.10;;;;;;5001477;28;20235;-92
2022/03/13 12:11:39;;;;;;;16.47;11.60;;;12.10;47.20;;;;;;4994204;28;20183;-87
2022/03/13 12:14:10;;;;;;;14.05;10.88;;;12.20;47.30;;;;;;4992052;28;20231;-87
2022/03/13 12:16:37;;;;;;;13.02;9.85;;;12.30;47.10;;;;;;4992085;28;20180;-88
2022/03/13 12:19:05;;;;;;;13.20;10.63;;;12.40;46.30;;;;;;4993685;28;20204;-94
2022/03/13 12:21:31;;;;;;;13.25;10.95;;;12.40;46.20;;;;;;4992662;28;20176;-88
2022/03/13 12:24:18;;;;;;;13.23;11.43;;;12.40;46.50;;;;;;4994853;28;20200;-91
2022/03/13 12:26:49;;;;;;;11.85;10.02;;;12.40;46.50;;;;;;4998341;28;20229;-88
2022/03/13 12:29:17;;;;;;;15.30;11.18;;;12.40;46.50;;;;;;4994189;28;20188;-87
2022/03/13 12:31:46;;;;;;;14.55;10.95;;;12.40;46.80;;;;;;4993524;28;20176;-94